sensor_id;sensor_type;location;lat;lon;timestamp;pressure;altitude;pressure_sealevel;temperature;humidity
70445;BME280;57902;49.638;11.070;2023-03-01T00:02:02;99232.75;;;-1.59;77.22
70445;BME280;57902;49.638;11.070;2023-03-01T00:04:28;99236.03;;;-1.61;77.41
70445;BME280;57902;49.638;11.070;2023-03-01T00:06:55;99231.75;;;-1.62;77.33
70445;BME280;57902;49.638;11.070;2023-03-01T00:09:22;99229.03;;;-1.68;77.58
70445;BME280;57902;49.638;11.070;2023-03-01T00:11:48;99225.22;;;-1.57;76.76
70445;BME280;57902;49.638;11.070;2023-03-01T00:14:15;99225.22;;;-1.57;77.06
70445;BME280;57902;49.638;11.070;2023-03-01T00:16:45;99224.91;;;-1.65;76.99
70445;BME280;57902;49.638;11.070;2023-03-01T00:19:14;99221.50;;;-1.67;77.19
70445;BME280;57902;49.638;11.070;2023-03-01T00:21:41;99218.16;;;-1.66;77.35
70445;BME280;57902;49.638;11.070;2023-03-01T00:24:08;99220.47;;;-1.72;77.50
70445;BME280;57902;49.638;11.070;2023-03-01T00:26:35;99215.69;;;-1.64;76.81
70445;BME280;57902;49.638;11.070;2023-03-01T00:29:02;99214.00;;;-1.64;76.80
70445;BME280;57902;49.638;11.070;2023-03-01T00:31:30;99210.72;;;-1.61;76.72
70445;BME280;57902;49.638;11.070;2023-03-01T00:33:59;99218.47;;;-1.56;76.15
70445;BME280;57902;49.638;11.070;2023-03-01T00:36:34;99215.03;;;-1.59;76.16
70445;BME280;57902;49.638;11.070;2023-03-01T00:39:03;99208.34;;;-1.56;76.01
70445;BME280;57902;49.638;11.070;2023-03-01T00:41:30;99206.81;;;-1.51;75.88
70445;BME280;57902;49.638;11.070;2023-03-01T00:43:57;99200.97;;;-1.50;75.77
70445;BME280;57902;49.638;11.070;2023-03-01T00:46:26;99197.53;;;-1.52;75.45
70445;BME280;57902;49.638;11.070;2023-03-01T00:48:53;99205.03;;;-1.55;75.50
70445;BME280;57902;49.638;11.070;2023-03-01T00:51:25;99207.59;;;-1.54;75.67
70445;BME280;57902;49.638;11.070;2023-03-01T00:53:54;99198.13;;;-1.60;75.97
70445;BME280;57902;49.638;11.070;2023-03-01T00:56:21;99197.16;;;-1.63;76.26
70445;BME280;57902;49.638;11.070;2023-03-01T00:58:47;99193.78;;;-1.64;76.18
70445;BME280;57902;49.638;11.070;2023-03-01T01:01:22;99202.13;;;-1.66;76.07
70445;BME280;57902;49.638;11.070;2023-03-01T01:03:57;99190.50;;;-1.61;75.70
70445;BME280;57902;49.638;11.070;2023-03-01T01:06:26;99188.94;;;-1.58;75.27
70445;BME280;57902;49.638;11.070;2023-03-01T01:08:55;99187.78;;;-1.67;76.33
70445;BME280;57902;49.638;11.070;2023-03-01T01:11:23;99190.13;;;-1.72;76.65
70445;BME280;57902;49.638;11.070;2023-03-01T01:13:50;99189.38;;;-1.69;76.44
70445;BME280;57902;49.638;11.070;2023-03-01T01:16:19;99176.38;;;-1.80;77.63
70445;BME280;57902;49.638;11.070;2023-03-01T01:18:46;99180.56;;;-1.81;76.91
70445;BME280;57902;49.638;11.070;2023-03-01T01:21:15;99161.72;;;-1.90;78.21
70445;BME280;57902;49.638;11.070;2023-03-01T01:23:43;99166.44;;;-2.00;78.68
70445;BME280;57902;49.638;11.070;2023-03-01T01:26:13;99165.31;;;-2.08;79.41
70445;BME280;57902;49.638;11.070;2023-03-01T01:28:40;99156.75;;;-2.12;79.21
70445;BME280;57902;49.638;11.070;2023-03-01T01:31:07;99158.31;;;-2.15;79.50
70445;BME280;57902;49.638;11.070;2023-03-01T01:33:34;99156.53;;;-2.18;79.93
70445;BME280;57902;49.638;11.070;2023-03-01T01:36:01;99146.19;;;-2.25;80.58
70445;BME280;57902;49.638;11.070;2023-03-01T01:38:27;99148.53;;;-2.30;81.04
70445;BME280;57902;49.638;11.070;2023-03-01T01:40:54;99144.13;;;-2.36;80.64
70445;BME280;57902;49.638;11.070;2023-03-01T01:43:25;99140.75;;;-2.36;81.15
70445;BME280;57902;49.638;11.070;2023-03-01T01:45:57;99144.81;;;-2.40;80.74
70445;BME280;57902;49.638;11.070;2023-03-01T01:48:30;99136.28;;;-2.43;80.52
70445;BME280;57902;49.638;11.070;2023-03-01T01:51:10;99126.78;;;-2.51;80.72
70445;BME280;57902;49.638;11.070;2023-03-01T01:53:39;99137.56;;;-2.55;81.65
70445;BME280;57902;49.638;11.070;2023-03-01T01:56:08;99144.97;;;-2.59;81.75
70445;BME280;57902;49.638;11.070;2023-03-01T01:58:38;99132.41;;;-2.58;81.87
70445;BME280;57902;49.638;11.070;2023-03-01T02:01:05;99139.69;;;-2.66;82.92
70445;BME280;57902;49.638;11.070;2023-03-01T02:03:34;99132.69;;;-2.73;82.72
70445;BME280;57902;49.638;11.070;2023-03-01T02:08:38;99129.34;;;-2.72;82.38
70445;BME280;57902;49.638;11.070;2023-03-01T02:11:09;99127.50;;;-2.77;82.82
70445;BME280;57902;49.638;11.070;2023-03-01T02:13:36;99117.97;;;-2.85;82.29
70445;BME280;57902;49.638;11.070;2023-03-01T02:16:11;99122.03;;;-2.88;83.17
70445;BME280;57902;49.638;11.070;2023-03-01T02:18:40;99120.28;;;-2.89;83.18
70445;BME280;57902;49.638;11.070;2023-03-01T02:23:40;99113.78;;;-2.84;83.04
70445;BME280;57902;49.638;11.070;2023-03-01T02:26:20;99114.56;;;-2.85;82.44
70445;BME280;57902;49.638;11.070;2023-03-01T02:28:50;99114.41;;;-2.90;82.75
70445;BME280;57902;49.638;11.070;2023-03-01T02:31:20;99106.94;;;-2.87;81.66
70445;BME280;57902;49.638;11.070;2023-03-01T02:34:06;99100.06;;;-2.91;83.09
70445;BME280;57902;49.638;11.070;2023-03-01T02:36:39;99101.63;;;-2.94;83.24
70445;BME280;57902;49.638;11.070;2023-03-01T02:39:08;99100.47;;;-3.03;82.18
70445;BME280;57902;49.638;11.070;2023-03-01T02:41:44;99095.19;;;-3.09;83.76
70445;BME280;57902;49.638;11.070;2023-03-01T02:44:12;99089.97;;;-3.13;83.62
70445;BME280;57902;49.638;11.070;2023-03-01T02:46:45;99095.69;;;-3.18;83.83
70445;BME280;57902;49.638;11.070;2023-03-01T02:49:19;99094.69;;;-3.23;83.46
70445;BME280;57902;49.638;11.070;2023-03-01T02:55:12;99100.06;;;-3.36;84.96
70445;BME280;57902;49.638;11.070;2023-03-01T02:57:43;99091.50;;;-3.40;84.05
70445;BME280;57902;49.638;11.070;2023-03-01T03:00:15;99085.66;;;-3.39;84.01
70445;BME280;57902;49.638;11.070;2023-03-01T03:02:50;99088.19;;;-3.39;83.42
70445;BME280;57902;49.638;11.070;2023-03-01T03:05:25;99091.94;;;-3.50;85.03
70445;BME280;57902;49.638;11.070;2023-03-01T03:07:53;99091.69;;;-3.56;84.02
70445;BME280;57902;49.638;11.070;2023-03-01T03:10:22;99087.31;;;-3.60;85.03
70445;BME280;57902;49.638;11.070;2023-03-01T03:12:50;99078.03;;;-3.61;86.19
70445;BME280;57902;49.638;11.070;2023-03-01T03:15:18;99084.56;;;-3.66;85.32
70445;BME280;57902;49.638;11.070;2023-03-01T03:17:47;99079.47;;;-3.68;85.82
70445;BME280;57902;49.638;11.070;2023-03-01T03:20:15;99077.50;;;-3.75;85.98
70445;BME280;57902;49.638;11.070;2023-03-01T03:22:51;99077.38;;;-3.78;86.43
70445;BME280;57902;49.638;11.070;2023-03-01T03:25:18;99079.72;;;-3.83;86.68
70445;BME280;57902;49.638;11.070;2023-03-01T03:27:46;99081.28;;;-3.85;87.24
70445;BME280;57902;49.638;11.070;2023-03-01T03:30:18;99082.13;;;-3.86;87.32
70445;BME280;57902;49.638;11.070;2023-03-01T03:32:47;99076.25;;;-3.85;88.02
70445;BME280;57902;49.638;11.070;2023-03-01T03:35:23;99079.59;;;-3.86;87.40
70445;BME280;57902;49.638;11.070;2023-03-01T03:37:51;99076.13;;;-3.88;87.01
70445;BME280;57902;49.638;11.070;2023-03-01T03:40:31;99076.94;;;-3.89;87.31
70445;BME280;57902;49.638;11.070;2023-03-01T03:42:58;99072.84;;;-3.87;87.98
70445;BME280;57902;49.638;11.070;2023-03-01T03:45:25;99071.34;;;-3.82;86.33
70445;BME280;57902;49.638;11.070;2023-03-01T03:47:51;99067.91;;;-3.84;86.97
70445;BME280;57902;49.638;11.070;2023-03-01T03:50:18;99063.78;;;-3.82;87.31
70445;BME280;57902;49.638;11.070;2023-03-01T03:52:45;99065.50;;;-3.81;87.29
70445;BME280;57902;49.638;11.070;2023-03-01T03:55:12;99062.16;;;-3.81;87.54
70445;BME280;57902;49.638;11.070;2023-03-01T03:57:41;99057.97;;;-3.81;87.40
70445;BME280;57902;49.638;11.070;2023-03-01T04:00:10;99067.19;;;-3.81;86.77
70445;BME280;57902;49.638;11.070;2023-03-01T04:02:42;99064.72;;;-3.80;87.17
70445;BME280;57902;49.638;11.070;2023-03-01T04:05:10;99062.38;;;-3.75;85.62
70445;BME280;57902;49.638;11.070;2023-03-01T04:07:37;99062.38;;;-3.75;86.34
70445;BME280;57902;49.638;11.070;2023-03-01T04:10:06;99069.88;;;-3.77;86.64
70445;BME280;57902;49.638;11.070;2023-03-01T04:12:34;99059.03;;;-3.76;87.39
70445;BME280;57902;49.638;11.070;2023-03-01T04:15:02;99063.34;;;-3.72;87.06
70445;BME280;57902;49.638;11.070;2023-03-01T04:17:43;99060.16;;;-3.67;87.09
70445;BME280;57902;49.638;11.070;2023-03-01T04:20:11;99059.38;;;-3.66;87.07
70445;BME280;57902;49.638;11.070;2023-03-01T04:22:39;99064.47;;;-3.65;87.03
70445;BME280;57902;49.638;11.070;2023-03-01T04:25:07;99070.34;;;-3.64;87.35
70445;BME280;57902;49.638;11.070;2023-03-01T04:27:34;99074.78;;;-3.59;86.03
70445;BME280;57902;49.638;11.070;2023-03-01T04:30:02;99064.59;;;-3.62;85.55
70445;BME280;57902;49.638;11.070;2023-03-01T04:32:29;99072.31;;;-3.57;85.24
70445;BME280;57902;49.638;11.070;2023-03-01T04:34:56;99077.13;;;-3.63;84.66
70445;BME280;57902;49.638;11.070;2023-03-01T04:37:22;99074.50;;;-3.66;84.43
70445;BME280;57902;49.638;11.070;2023-03-01T04:39:50;99071.63;;;-3.76;85.73
70445;BME280;57902;49.638;11.070;2023-03-01T04:42:16;99069.03;;;-3.77;86.10
70445;BME280;57902;49.638;11.070;2023-03-01T04:44:44;99074.97;;;-3.75;85.34
70445;BME280;57902;49.638;11.070;2023-03-01T04:47:11;99065.63;;;-3.78;85.48
70445;BME280;57902;49.638;11.070;2023-03-01T04:49:37;99072.09;;;-3.84;86.86
70445;BME280;57902;49.638;11.070;2023-03-01T04:52:04;99072.84;;;-3.87;87.00
70445;BME280;57902;49.638;11.070;2023-03-01T04:54:32;99074.28;;;-3.92;86.22
70445;BME280;57902;49.638;11.070;2023-03-01T04:57:00;99070.84;;;-3.94;86.36
70445;BME280;57902;49.638;11.070;2023-03-01T04:59:28;99078.09;;;-4.02;86.95
70445;BME280;57902;49.638;11.070;2023-03-01T05:01:56;99071.75;;;-4.13;87.89
70445;BME280;57902;49.638;11.070;2023-03-01T05:04:24;99078.59;;;-4.11;88.05
70445;BME280;57902;49.638;11.070;2023-03-01T05:06:50;99072.66;;;-4.11;87.93
70445;BME280;57902;49.638;11.070;2023-03-01T05:09:17;99074.28;;;-4.13;87.48
70445;BME280;57902;49.638;11.070;2023-03-01T05:11:43;99076.78;;;-4.13;86.89
70445;BME280;57902;49.638;11.070;2023-03-01T05:14:10;99086.56;;;-4.21;88.51
70445;BME280;57902;49.638;11.070;2023-03-01T05:16:37;99078.75;;;-4.27;88.07
70445;BME280;57902;49.638;11.070;2023-03-01T05:19:03;99075.22;;;-4.31;88.41
70445;BME280;57902;49.638;11.070;2023-03-01T05:21:42;99077.56;;;-4.35;88.91
70445;BME280;57902;49.638;11.070;2023-03-01T05:24:29;99073.31;;;-4.36;87.90
70445;BME280;57902;49.638;11.070;2023-03-01T05:26:55;99068.16;;;-4.40;87.21
70445;BME280;57902;49.638;11.070;2023-03-01T05:29:23;99064.22;;;-4.52;88.99
70445;BME280;57902;49.638;11.070;2023-03-01T05:31:56;99066.63;;;-4.55;89.37
70445;BME280;57902;49.638;11.070;2023-03-01T05:34:32;99064.94;;;-4.57;88.88
70445;BME280;57902;49.638;11.070;2023-03-01T05:36:59;99054.56;;;-4.63;90.31
70445;BME280;57902;49.638;11.070;2023-03-01T05:39:27;99057.97;;;-4.62;89.96
70445;BME280;57902;49.638;11.070;2023-03-01T05:41:55;99058.94;;;-4.59;88.72
70445;BME280;57902;49.638;11.070;2023-03-01T05:44:23;99053.13;;;-4.58;89.23
70445;BME280;57902;49.638;11.070;2023-03-01T05:46:49;99062.41;;;-4.57;88.16
70445;BME280;57902;49.638;11.070;2023-03-01T05:49:16;99061.28;;;-4.63;90.07
70445;BME280;57902;49.638;11.070;2023-03-01T05:51:47;99055.16;;;-4.68;91.11
70445;BME280;57902;49.638;11.070;2023-03-01T05:54:15;99051.78;;;-4.69;90.64
70445;BME280;57902;49.638;11.070;2023-03-01T05:56:41;99056.97;;;-4.66;89.30
70445;BME280;57902;49.638;11.070;2023-03-01T05:59:07;99064.31;;;-4.70;90.35
70445;BME280;57902;49.638;11.070;2023-03-01T06:01:35;99061.13;;;-4.66;89.77
70445;BME280;57902;49.638;11.070;2023-03-01T06:04:03;99053.59;;;-4.66;90.44
70445;BME280;57902;49.638;11.070;2023-03-01T06:06:34;99048.50;;;-4.68;90.81
70445;BME280;57902;49.638;11.070;2023-03-01T06:09:00;99045.78;;;-4.72;90.60
70445;BME280;57902;49.638;11.070;2023-03-01T06:11:27;99057.47;;;-4.73;91.10
70445;BME280;57902;49.638;11.070;2023-03-01T06:13:53;99053.41;;;-4.71;91.38
70445;BME280;57902;49.638;11.070;2023-03-01T06:16:19;99054.97;;;-4.73;92.75
70445;BME280;57902;49.638;11.070;2023-03-01T06:18:46;99054.38;;;-4.67;92.17
70445;BME280;57902;49.638;11.070;2023-03-01T06:21:12;99049.59;;;-4.61;91.28
70445;BME280;57902;49.638;11.070;2023-03-01T06:23:39;99054.03;;;-4.55;91.57
70445;BME280;57902;49.638;11.070;2023-03-01T06:26:07;99047.63;;;-4.49;91.08
70445;BME280;57902;49.638;11.070;2023-03-01T06:28:34;99050.16;;;-4.49;91.31
70445;BME280;57902;49.638;11.070;2023-03-01T06:31:01;99047.94;;;-4.41;91.36
70445;BME280;57902;49.638;11.070;2023-03-01T06:33:28;99047.28;;;-4.37;91.66
70445;BME280;57902;49.638;11.070;2023-03-01T06:35:55;99045.09;;;-4.29;90.68
70445;BME280;57902;49.638;11.070;2023-03-01T06:38:24;99037.25;;;-4.16;91.44
70445;BME280;57902;49.638;11.070;2023-03-01T06:40:52;99034.09;;;-3.89;90.43
70445;BME280;57902;49.638;11.070;2023-03-01T06:43:20;99033.56;;;-3.61;89.63
70445;BME280;57902;49.638;11.070;2023-03-01T06:45:46;99034.00;;;-3.27;88.54
70445;BME280;57902;49.638;11.070;2023-03-01T06:48:13;99033.72;;;-2.88;87.77
70445;BME280;57902;49.638;11.070;2023-03-01T06:50:39;99036.75;;;-2.50;84.89
70445;BME280;57902;49.638;11.070;2023-03-01T06:53:06;99030.50;;;-2.10;83.84
70445;BME280;57902;49.638;11.070;2023-03-01T06:55:32;99028.38;;;-1.70;81.47
70445;BME280;57902;49.638;11.070;2023-03-01T06:58:01;99027.69;;;-1.39;80.96
70445;BME280;57902;49.638;11.070;2023-03-01T07:00:28;99032.09;;;-1.03;78.94
70445;BME280;57902;49.638;11.070;2023-03-01T07:02:58;99036.47;;;-0.67;77.28
70445;BME280;57902;49.638;11.070;2023-03-01T07:05:25;99032.09;;;-0.42;74.36
70445;BME280;57902;49.638;11.070;2023-03-01T07:07:53;99029.41;;;-0.13;73.30
70445;BME280;57902;49.638;11.070;2023-03-01T07:10:19;99020.94;;;0.20;72.46
70445;BME280;57902;49.638;11.070;2023-03-01T07:12:46;99020.91;;;0.55;71.41
70445;BME280;57902;49.638;11.070;2023-03-01T07:15:12;99018.88;;;0.79;70.68
70445;BME280;57902;49.638;11.070;2023-03-01T07:17:41;99018.53;;;1.02;69.63
70445;BME280;57902;49.638;11.070;2023-03-01T07:20:08;99022.94;;;1.11;68.92
70445;BME280;57902;49.638;11.070;2023-03-01T07:22:34;99017.63;;;1.43;67.68
70445;BME280;57902;49.638;11.070;2023-03-01T07:25:01;99020.47;;;1.60;66.78
70445;BME280;57902;49.638;11.070;2023-03-01T07:27:27;99018.44;;;1.89;65.49
70445;BME280;57902;49.638;11.070;2023-03-01T07:29:54;99009.50;;;2.13;64.48
70445;BME280;57902;49.638;11.070;2023-03-01T07:32:20;99010.81;;;2.41;64.62
70445;BME280;57902;49.638;11.070;2023-03-01T07:34:47;99010.22;;;2.59;64.58
70445;BME280;57902;49.638;11.070;2023-03-01T07:37:13;99015.72;;;2.90;62.76
70445;BME280;57902;49.638;11.070;2023-03-01T07:39:40;99009.16;;;3.09;62.27
70445;BME280;57902;49.638;11.070;2023-03-01T07:42:06;99011.13;;;3.33;61.52
70445;BME280;57902;49.638;11.070;2023-03-01T07:44:33;98999.41;;;3.47;59.80
70445;BME280;57902;49.638;11.070;2023-03-01T07:47:00;99003.00;;;3.68;59.78
70445;BME280;57902;49.638;11.070;2023-03-01T07:49:27;99006.53;;;3.82;58.94
70445;BME280;57902;49.638;11.070;2023-03-01T07:51:53;98994.03;;;4.12;57.15
70445;BME280;57902;49.638;11.070;2023-03-01T07:54:20;98999.13;;;4.09;56.00
70445;BME280;57902;49.638;11.070;2023-03-01T07:56:46;98996.66;;;4.26;56.40
70445;BME280;57902;49.638;11.070;2023-03-01T07:59:13;98992.44;;;4.26;55.58
70445;BME280;57902;49.638;11.070;2023-03-01T08:01:39;98985.69;;;4.37;54.64
70445;BME280;57902;49.638;11.070;2023-03-01T08:04:08;98985.78;;;4.50;54.19
70445;BME280;57902;49.638;11.070;2023-03-01T08:06:35;98985.84;;;4.62;53.62
70445;BME280;57902;49.638;11.070;2023-03-01T08:09:01;98982.63;;;4.97;53.56
70445;BME280;57902;49.638;11.070;2023-03-01T08:11:28;98972.50;;;5.22;51.32
70445;BME280;57902;49.638;11.070;2023-03-01T08:13:55;98976.75;;;5.23;50.21
70445;BME280;57902;49.638;11.070;2023-03-01T08:16:23;98970.00;;;5.56;50.50
70445;BME280;57902;49.638;11.070;2023-03-01T08:18:49;98969.94;;;5.28;49.16
70445;BME280;57902;49.638;11.070;2023-03-01T08:21:17;98976.06;;;6.23;48.93
70445;BME280;57902;49.638;11.070;2023-03-01T08:23:44;98977.72;;;6.45;46.01
70445;BME280;57902;49.638;11.070;2023-03-01T08:26:16;98971.66;;;6.77;45.23
70445;BME280;57902;49.638;11.070;2023-03-01T08:28:45;98969.22;;;6.12;45.39
70445;BME280;57902;49.638;11.070;2023-03-01T08:31:29;98978.59;;;6.27;46.44
70445;BME280;57902;49.638;11.070;2023-03-01T08:33:58;98974.25;;;6.62;46.04
70445;BME280;57902;49.638;11.070;2023-03-01T08:36:37;98962.25;;;6.89;43.95
70445;BME280;57902;49.638;11.070;2023-03-01T08:39:04;98963.88;;;8.29;40.33
70445;BME280;57902;49.638;11.070;2023-03-01T08:41:32;98962.22;;;6.86;42.88
70445;BME280;57902;49.638;11.070;2023-03-01T08:43:58;98963.13;;;6.81;42.69
70445;BME280;57902;49.638;11.070;2023-03-01T08:46:31;98952.72;;;7.14;42.63
70445;BME280;57902;49.638;11.070;2023-03-01T08:48:58;98943.13;;;7.45;41.65
70445;BME280;57902;49.638;11.070;2023-03-01T08:51:26;98939.81;;;7.28;41.61
70445;BME280;57902;49.638;11.070;2023-03-01T08:53:52;98946.81;;;6.95;42.41
70445;BME280;57902;49.638;11.070;2023-03-01T08:56:20;98934.03;;;6.93;43.11
70445;BME280;57902;49.638;11.070;2023-03-01T08:58:48;98934.81;;;7.09;42.98
70445;BME280;57902;49.638;11.070;2023-03-01T09:01:17;98933.13;;;7.04;42.22
70445;BME280;57902;49.638;11.070;2023-03-01T09:03:45;98938.00;;;7.47;40.73
70445;BME280;57902;49.638;11.070;2023-03-01T09:06:12;98932.78;;;7.59;41.32
70445;BME280;57902;49.638;11.070;2023-03-01T09:08:42;98937.19;;;7.42;41.82
70445;BME280;57902;49.638;11.070;2023-03-01T09:11:11;98928.75;;;8.33;39.67
70445;BME280;57902;49.638;11.070;2023-03-01T09:13:39;98938.69;;;7.69;41.11
70445;BME280;57902;49.638;11.070;2023-03-01T09:16:11;98929.91;;;7.98;39.90
70445;BME280;57902;49.638;11.070;2023-03-01T09:18:38;98932.72;;;7.70;40.90
70445;BME280;57902;49.638;11.070;2023-03-01T09:21:16;98926.09;;;7.35;41.02
70445;BME280;57902;49.638;11.070;2023-03-01T09:23:50;98928.13;;;8.08;39.31
70445;BME280;57902;49.638;11.070;2023-03-01T09:26:21;98934.88;;;8.19;39.01
70445;BME280;57902;49.638;11.070;2023-03-01T09:28:50;98926.13;;;7.32;40.61
70445;BME280;57902;49.638;11.070;2023-03-01T09:31:20;98930.84;;;7.87;39.41
70445;BME280;57902;49.638;11.070;2023-03-01T09:33:48;98915.69;;;7.57;40.75
70445;BME280;57902;49.638;11.070;2023-03-01T09:36:17;98931.88;;;7.69;40.62
70445;BME280;57902;49.638;11.070;2023-03-01T09:38:44;98932.53;;;7.92;39.25
70445;BME280;57902;49.638;11.070;2023-03-01T09:43:51;98921.97;;;7.11;40.52
70445;BME280;57902;49.638;11.070;2023-03-01T09:46:23;98919.53;;;6.88;41.00
70445;BME280;57902;49.638;11.070;2023-03-01T09:49:01;98919.44;;;7.01;41.41
70445;BME280;57902;49.638;11.070;2023-03-01T09:51:33;98916.16;;;6.72;41.38
70445;BME280;57902;49.638;11.070;2023-03-01T09:54:04;98914.50;;;6.63;41.25
70445;BME280;57902;49.638;11.070;2023-03-01T09:56:41;98916.22;;;6.58;42.04
70445;BME280;57902;49.638;11.070;2023-03-01T10:01:47;98911.97;;;6.46;42.51
70445;BME280;57902;49.638;11.070;2023-03-01T10:04:47;98912.84;;;6.46;42.34
70445;BME280;57902;49.638;11.070;2023-03-01T10:09:57;98894.06;;;6.47;42.58
70445;BME280;57902;49.638;11.070;2023-03-01T10:12:30;98894.03;;;6.44;44.37
70445;BME280;57902;49.638;11.070;2023-03-01T10:15:14;98888.06;;;6.47;42.92
70445;BME280;57902;49.638;11.070;2023-03-01T10:17:50;98882.91;;;6.52;42.98
70445;BME280;57902;49.638;11.070;2023-03-01T10:20:24;98898.28;;;6.59;43.00
70445;BME280;57902;49.638;11.070;2023-03-01T10:22:52;98881.19;;;6.60;42.27
70445;BME280;57902;49.638;11.070;2023-03-01T10:28:02;98860.88;;;6.07;43.18
70445;BME280;57902;49.638;11.070;2023-03-01T10:30:37;98871.84;;;6.46;42.60
70445;BME280;57902;49.638;11.070;2023-03-01T10:33:22;98877.03;;;6.29;43.33
70445;BME280;57902;49.638;11.070;2023-03-01T10:35:49;98864.22;;;6.39;42.35
70445;BME280;57902;49.638;11.070;2023-03-01T10:38:16;98879.53;;;6.46;42.22
70445;BME280;57902;49.638;11.070;2023-03-01T10:40:55;98854.81;;;6.41;43.05
70445;BME280;57902;49.638;11.070;2023-03-01T10:43:25;98851.41;;;6.39;42.96
70445;BME280;57902;49.638;11.070;2023-03-01T10:45:53;98864.06;;;6.74;42.30
70445;BME280;57902;49.638;11.070;2023-03-01T10:48:26;98853.00;;;6.63;42.56
70445;BME280;57902;49.638;11.070;2023-03-01T10:58:23;98841.84;;;6.73;43.08
70445;BME280;57902;49.638;11.070;2023-03-01T11:01:06;98836.78;;;6.65;42.83
70445;BME280;57902;49.638;11.070;2023-03-01T11:06:32;98830.88;;;6.46;42.74
70445;BME280;57902;49.638;11.070;2023-03-01T11:09:19;98830.75;;;6.73;43.01
70445;BME280;57902;49.638;11.070;2023-03-01T11:11:54;98837.56;;;6.75;42.63
70445;BME280;57902;49.638;11.070;2023-03-01T11:14:26;98819.66;;;6.71;43.22
70445;BME280;57902;49.638;11.070;2023-03-01T11:17:30;98812.00;;;6.63;43.38
70445;BME280;57902;49.638;11.070;2023-03-01T11:23:02;98792.41;;;6.54;42.63
70445;BME280;57902;49.638;11.070;2023-03-01T11:25:35;98787.28;;;6.57;42.64
70445;BME280;57902;49.638;11.070;2023-03-01T11:28:04;98782.16;;;6.57;43.75
70445;BME280;57902;49.638;11.070;2023-03-01T11:33:08;98784.63;;;6.73;44.61
70445;BME280;57902;49.638;11.070;2023-03-01T11:35:47;98774.47;;;6.56;44.13
70445;BME280;57902;49.638;11.070;2023-03-01T11:38:21;98780.31;;;6.81;43.89
70445;BME280;57902;49.638;11.070;2023-03-01T11:41:13;98764.91;;;6.81;44.00
70445;BME280;57902;49.638;11.070;2023-03-01T11:43:54;98763.25;;;6.75;44.06
70445;BME280;57902;49.638;11.070;2023-03-01T11:54:55;98746.78;;;7.10;43.79
70445;BME280;57902;49.638;11.070;2023-03-01T12:03:30;98736.69;;;6.86;44.76
70445;BME280;57902;49.638;11.070;2023-03-01T12:09:07;98727.41;;;6.77;43.83
70445;BME280;57902;49.638;11.070;2023-03-01T12:11:47;98720.50;;;6.82;44.30
70445;BME280;57902;49.638;11.070;2023-03-01T12:14:47;98711.84;;;6.97;44.42
70445;BME280;57902;49.638;11.070;2023-03-01T12:20:15;98704.34;;;6.77;44.09
70445;BME280;57902;49.638;11.070;2023-03-01T12:22:57;98700.72;;;7.01;44.42
70445;BME280;57902;49.638;11.070;2023-03-01T12:26:02;98698.19;;;6.96;44.68
70445;BME280;57902;49.638;11.070;2023-03-01T12:31:45;98688.84;;;6.91;44.40
70445;BME280;57902;49.638;11.070;2023-03-01T12:34:35;98685.28;;;7.06;44.30
70445;BME280;57902;49.638;11.070;2023-03-01T12:37:27;98688.56;;;7.22;44.24
70445;BME280;57902;49.638;11.070;2023-03-01T12:42:54;98683.47;;;7.18;44.72
70445;BME280;57902;49.638;11.070;2023-03-01T12:45:44;98672.19;;;7.35;44.35
70445;BME280;57902;49.638;11.070;2023-03-01T12:50:54;98666.38;;;7.16;44.55
70445;BME280;57902;49.638;11.070;2023-03-01T12:53:29;98676.59;;;7.21;45.20
70445;BME280;57902;49.638;11.070;2023-03-01T12:56:05;98672.25;;;7.30;44.21
70445;BME280;57902;49.638;11.070;2023-03-01T12:58:45;98653.41;;;7.34;44.76
70445;BME280;57902;49.638;11.070;2023-03-01T13:01:41;98664.59;;;7.26;45.32
70445;BME280;57902;49.638;11.070;2023-03-01T13:04:29;98655.97;;;7.33;45.62
70445;BME280;57902;49.638;11.070;2023-03-01T13:07:41;98649.44;;;7.01;44.84
70445;BME280;57902;49.638;11.070;2023-03-01T13:10:23;98644.09;;;7.24;45.56
70445;BME280;57902;49.638;11.070;2023-03-01T13:15:34;98643.84;;;7.47;45.31
70445;BME280;57902;49.638;11.070;2023-03-01T13:28:40;98637.13;;;7.37;46.35
70445;BME280;57902;49.638;11.070;2023-03-01T13:33:54;98642.88;;;7.54;46.08
70445;BME280;57902;49.638;11.070;2023-03-01T13:44:25;98625.56;;;7.72;46.46
70445;BME280;57902;49.638;11.070;2023-03-01T13:46:56;98628.22;;;7.66;46.86
70445;BME280;57902;49.638;11.070;2023-03-01T13:49:29;98632.44;;;7.71;46.59
70445;BME280;57902;49.638;11.070;2023-03-01T13:53:14;98629.09;;;7.63;47.54
70445;BME280;57902;49.638;11.070;2023-03-01T13:55:25;98615.41;;;7.66;47.27
70445;BME280;57902;49.638;11.070;2023-03-01T13:58:00;98623.28;;;7.52;47.21
70445;BME280;57902;49.638;11.070;2023-03-01T14:00:31;98626.63;;;7.56;47.59
70445;BME280;57902;49.638;11.070;2023-03-01T14:03:19;98624.09;;;7.54;48.19
70445;BME280;57902;49.638;11.070;2023-03-01T14:08:41;98617.16;;;7.62;48.31
70445;BME280;57902;49.638;11.070;2023-03-01T14:11:43;98607.66;;;7.69;48.12
70445;BME280;57902;49.638;11.070;2023-03-01T14:14:42;98616.97;;;7.78;48.10
70445;BME280;57902;49.638;11.070;2023-03-01T14:20:09;98618.75;;;7.73;47.67
70445;BME280;57902;49.638;11.070;2023-03-01T14:22:40;98620.31;;;7.84;47.51
70445;BME280;57902;49.638;11.070;2023-03-01T14:25:26;98616.88;;;7.84;47.55
70445;BME280;57902;49.638;11.070;2023-03-01T14:28:14;98616.06;;;7.80;48.05
70445;BME280;57902;49.638;11.070;2023-03-01T14:30:45;98617.56;;;7.97;46.69
70445;BME280;57902;49.638;11.070;2023-03-01T14:38:23;98617.66;;;7.89;47.11
70445;BME280;57902;49.638;11.070;2023-03-01T14:40:56;98618.59;;;7.83;47.69
70445;BME280;57902;49.638;11.070;2023-03-01T14:43:24;98611.84;;;7.76;48.09
70445;BME280;57902;49.638;11.070;2023-03-01T14:45:52;98613.63;;;7.71;47.41
70445;BME280;57902;49.638;11.070;2023-03-01T14:48:19;98611.84;;;7.76;47.92
70445;BME280;57902;49.638;11.070;2023-03-01T14:50:46;98616.09;;;7.79;47.45
70445;BME280;57902;49.638;11.070;2023-03-01T14:53:19;98618.78;;;7.71;47.50
70445;BME280;57902;49.638;11.070;2023-03-01T14:55:49;98616.88;;;7.84;47.63